Time;durP1;ratioP1;P1;durP2;ratioP2;P2;SDS_P1;SDS_P2;PMS_P1;PMS_P2;Temp;Humidity;BMP_temperature;BMP_pressure;BME280_temperature;BME280_humidity;BME280_pressure;Samples;Min_cycle;Max_cycle;Signal;HPM_P1;HPM_P2
2022/09/19 00:01:07;;;;;;;12.10;2.40;;;;;;;;;;4926636;29;20048;-87
2022/09/19 00:03:35;;;;;;;9.93;3.23;;;;;;;;;;4918543;29;20052;-87
2022/09/19 00:06:01;;;;;;;10.10;2.55;;;12.90;99.90;;;;;;4923501;29;20074;-89
2022/09/19 00:08:30;;;;;;;8.88;2.20;;;;;;;;;;4923483;29;20143;-88
2022/09/19 00:10:56;;;;;;;12.65;3.40;;;;;;;;;;4910573;29;20043;-88
2022/09/19 00:13:22;;;;;;;10.20;3.20;;;12.70;99.90;;;;;;4922354;29;20047;-88
2022/09/19 00:15:49;;;;;;;12.45;2.53;;;;;;;;;;4908191;29;20044;-88
2022/09/19 00:18:16;;;;;;;11.65;2.28;;;;;;;;;;4915360;29;20040;-88
2022/09/19 00:20:43;;;;;;;15.98;2.80;;;12.60;99.90;;;;;;4921697;29;20385;-88
2022/09/19 00:26:06;;;;;;;14.20;2.90;;;12.10;99.90;;;;;;4922063;29;20105;-89
2022/09/19 00:28:34;;;;;;;13.13;2.72;;;;;;;;;;4921546;29;20146;-88
2022/09/19 00:31:01;;;;;;;14.40;3.17;;;;;;;;;;4931530;29;20047;-88
2022/09/19 00:33:30;;;;;;;20.38;3.55;;;12.40;99.90;;;;;;4919141;29;20189;-88
2022/09/19 00:35:59;;;;;;;12.05;3.42;;;;;;;;;;4922454;29;20040;-87
2022/09/19 00:38:27;;;;;;;16.80;2.45;;;12.40;1.00;;;;;;4923571;29;20124;-88
2022/09/19 00:41:00;;;;;;;16.13;2.97;;;;;;;;;;4908556;29;20043;-87
2022/09/19 00:43:48;;;;;;;10.75;2.83;;;12.40;1.00;;;;;;4923916;29;20142;-87
2022/09/19 00:46:15;;;;;;;13.30;2.85;;;;;;;;;;4924234;29;20035;-85
2022/09/19 00:48:42;;;;;;;18.52;4.45;;;;;;;;;;4917889;29;20052;-87
2022/09/19 00:51:17;;;;;;;16.70;2.65;;;;;;;;;;4914832;29;20062;-86
2022/09/19 00:53:43;;;;;;;11.85;2.35;;;;;;;;;;4913067;29;20416;-87
2022/09/19 00:56:10;;;;;;;9.25;2.25;;;;;;;;;;4901085;29;20092;-87
2022/09/19 00:58:41;;;;;;;10.48;2.25;;;;;;;;;;4922971;29;20063;-87
2022/09/19 01:01:15;;;;;;;12.90;2.60;;;11.50;99.90;;;;;;4911878;29;20058;-88
2022/09/19 01:03:42;;;;;;;11.63;2.28;;;;;;;;;;4924074;29;20426;-86
2022/09/19 01:06:19;;;;;;;11.38;2.25;;;;;;;;;;4918065;29;20090;-87
2022/09/19 01:08:58;;;;;;;11.60;2.30;;;;;;;;;;4910066;29;20137;-87
2022/09/19 01:11:34;;;;;;;10.93;2.80;;;;;;;;;;4904392;29;20044;-89
2022/09/19 01:14:26;;;;;;;11.75;2.30;;;;;;;;;;4915247;29;20051;-88
2022/09/19 01:16:54;;;;;;;9.35;2.00;;;;;;;;;;4916222;29;20059;-87
2022/09/19 01:19:23;;;;;;;12.23;2.28;;;;;;;;;;4932526;29;20172;-88
2022/09/19 01:22:23;;;;;;;12.95;2.28;;;12.60;99.90;;;;;;4911566;29;20086;-88
2022/09/19 01:25:19;;;;;;;12.55;3.97;;;;;;;;;;4921938;29;20040;-85
2022/09/19 01:28:08;;;;;;;13.88;2.90;;;;;;;;;;4901327;29;20044;-87
2022/09/19 01:30:42;;;;;;;11.27;2.58;;;;;;;;;;4907287;29;20122;-88
2022/09/19 01:33:20;;;;;;;11.73;2.88;;;;;;;;;;4925110;29;20047;-88
2022/09/19 01:35:53;;;;;;;13.60;3.15;;;;;;;;;;4929982;29;20092;-87
2022/09/19 01:38:37;;;;;;;12.15;2.30;;;;;;;;;;4905228;29;20127;-88
2022/09/19 01:41:27;;;;;;;12.50;2.20;;;;;;;;;;4931571;29;20189;-87
2022/09/19 01:44:29;;;;;;;12.43;2.50;;;12.90;10.50;;;;;;4921148;29;20147;-88
2022/09/19 01:47:07;;;;;;;12.57;2.85;;;12.80;99.90;;;;;;4901573;29;20047;-88
2022/09/19 01:49:34;;;;;;;13.18;3.42;;;;;;;;;;4926691;29;20063;-87
2022/09/19 01:52:30;;;;;;;12.05;2.60;;;;;;;;;;4913293;29;20515;-88
2022/09/19 01:55:15;;;;;;;14.13;4.05;;;12.70;99.90;;;;;;4908633;29;20071;-88
2022/09/19 01:57:52;;;;;;;11.38;2.80;;;12.90;99.90;;;;;;4915720;29;20048;-87
2022/09/19 02:00:49;;;;;;;21.10;5.22;;;12.80;12.10;;;;;;4905102;29;20047;-87
2022/09/19 02:03:27;;;;;;;14.05;3.25;;;;;;;;;;4927870;29;20109;-87
2022/09/19 02:06:13;;;;;;;10.13;2.58;;;;;;;;;;4920428;29;20054;-88
2022/09/19 02:08:53;;;;;;;12.90;2.20;;;13.10;99.90;;;;;;4929043;29;20079;-88
2022/09/19 02:11:21;;;;;;;16.42;2.33;;;;;;;;;;4908388;29;20512;-89
2022/09/19 02:13:55;;;;;;;11.50;2.25;;;;;;;;;;4921033;29;20091;-88
2022/09/19 02:16:25;;;;;;;8.13;1.70;;;;;;;;;;4922639;29;20044;-89
2022/09/19 02:19:06;;;;;;;9.23;1.90;;;;;;;;;;4924658;29;20098;-89
2022/09/19 02:21:48;;;;;;;11.35;1.85;;;13.10;99.90;;;;;;4916574;23;20527;-58
2022/09/19 02:24:19;;;;;;;8.05;1.70;;;13.10;99.90;;;;;;4925907;29;20660;-56
2022/09/19 02:26:51;;;;;;;10.80;2.92;;;12.60;99.90;;;;;;4906224;29;20032;-59
2022/09/19 02:29:24;;;;;;;9.50;1.85;;;12.90;99.90;;;;;;4908576;29;20036;-58
2022/09/19 02:31:53;;;;;;;13.13;2.72;;;12.70;99.90;;;;;;4899133;29;20358;-58
2022/09/19 02:34:20;;;;;;;8.57;1.85;;;;;;;;;;4910286;29;20179;-59
2022/09/19 02:36:55;;;;;;;8.50;1.83;;;12.70;99.90;;;;;;4911791;29;20123;-57
2022/09/19 02:39:46;;;;;;;9.70;2.33;;;12.90;99.90;;;;;;4904229;29;20040;-58
2022/09/19 02:42:46;;;;;;;10.55;1.92;;;13.50;99.90;;;;;;4903463;29;20499;-58
2022/09/19 02:45:32;;;;;;;10.25;1.90;;;13.10;99.90;;;;;;4901986;29;20262;-57
2022/09/19 02:48:40;;;;;;;12.10;2.10;;;12.60;99.90;;;;;;4906214;29;20099;-59
2022/09/19 02:51:08;;;;;;;14.57;2.38;;;;;;;;;;4903321;29;20067;-57
2022/09/19 02:53:39;;;;;;;11.48;1.83;;;13.40;99.90;;;;;;4912354;29;20040;-58
2022/09/19 02:56:06;;;;;;;7.53;1.80;;;13.00;1.00;;;;;;4904486;29;20044;-57
2022/09/19 02:58:46;;;;;;;14.02;2.60;;;13.00;13.20;;;;;;4906222;29;20049;-58
2022/09/19 03:01:22;;;;;;;13.20;2.20;;;13.00;99.90;;;;;;4905753;29;20116;-59
2022/09/19 03:04:12;;;;;;;10.00;2.20;;;13.70;30.40;;;;;;4903617;29;20414;-58
2022/09/19 03:06:48;;;;;;;11.48;2.45;;;13.20;99.90;;;;;;4907859;29;20078;-58
2022/09/19 03:09:18;;;;;;;10.60;1.70;;;12.70;90.20;;;;;;4905882;29;20121;-59
2022/09/19 03:11:49;;;;;;;9.85;2.53;;;13.50;99.90;;;;;;4904712;29;20533;-59
2022/09/19 03:14:16;;;;;;;10.13;1.50;;;13.00;1.00;;;;;;4907377;29;20074;-57
2022/09/19 03:16:47;;;;;;;11.27;1.70;;;13.00;99.90;;;;;;4911569;29;20135;-58
2022/09/19 03:19:13;;;;;;;8.63;1.70;;;12.90;85.80;;;;;;4907300;29;20043;-57
2022/09/19 03:21:41;;;;;;;10.60;1.55;;;13.50;71.60;;;;;;4910452;29;20051;-58
2022/09/19 03:24:08;;;;;;;10.23;1.92;;;13.00;99.90;;;;;;4909063;29;20043;-57
2022/09/19 03:26:36;;;;;;;13.02;1.83;;;12.70;99.90;;;;;;4909173;29;20064;-57
2022/09/19 03:29:04;;;;;;;12.75;3.50;;;13.40;99.90;;;;;;4907410;29;20092;-57
2022/09/19 03:31:30;;;;;;;11.40;2.85;;;12.60;99.90;;;;;;4913771;29;20043;-56
2022/09/19 03:33:56;;;;;;;12.57;2.25;;;12.90;99.90;;;;;;4901565;29;20461;-55
2022/09/19 03:36:26;;;;;;;10.85;2.30;;;12.90;99.90;;;;;;4910825;29;20040;-57
2022/09/19 03:38:52;;;;;;;11.27;2.35;;;13.00;1.00;;;;;;4913365;29;20043;-58
2022/09/19 03:41:20;;;;;;;12.77;3.00;;;12.70;99.90;;;;;;4910056;29;20475;-59
2022/09/19 03:43:46;;;;;;;11.38;2.05;;;12.80;99.90;;;;;;4913347;29;20115;-57
2022/09/19 03:46:17;;;;;;;9.15;2.30;;;13.00;99.90;;;;;;4910507;29;20127;-58
2022/09/19 03:48:44;;;;;;;13.63;2.55;;;13.80;99.90;;;;;;4909777;29;20048;-58
2022/09/19 03:51:11;;;;;;;12.07;1.77;;;13.50;99.90;;;;;;4904546;29;20040;-56
2022/09/19 03:53:37;;;;;;;7.78;1.67;;;13.00;99.90;;;;;;4910989;29;20040;-58
2022/09/19 03:56:04;;;;;;;7.15;1.80;;;12.80;99.90;;;;;;4906220;29;20230;-57
2022/09/19 03:58:30;;;;;;;11.82;2.28;;;12.80;99.90;;;;;;4914972;29;20415;-56
2022/09/19 04:01:00;;;;;;;10.23;1.88;;;12.60;99.90;;;;;;4911147;29;20099;-58
2022/09/19 04:03:25;;;;;;;7.88;2.10;;;13.50;99.90;;;;;;4912064;29;20043;-58
2022/09/19 04:05:51;;;;;;;9.55;2.25;;;12.90;54.90;;;;;;4910765;29;20044;-58
2022/09/19 04:08:18;;;;;;;9.40;1.98;;;12.70;99.90;;;;;;4912135;29;20036;-58
2022/09/19 04:10:47;;;;;;;7.95;1.77;;;12.90;99.90;;;;;;4905963;29;20040;-58
2022/09/19 04:13:13;;;;;;;8.50;1.85;;;12.70;1.00;;;;;;4909625;29;20040;-58
2022/09/19 04:15:40;;;;;;;11.23;2.33;;;13.00;1.00;;;;;;4909704;29;20068;-59
2022/09/19 04:18:06;;;;;;;13.07;2.72;;;12.60;71.50;;;;;;4908046;29;20056;-58
2022/09/19 04:20:33;;;;;;;10.00;1.70;;;12.60;99.90;;;;;;4912511;29;20100;-58
2022/09/19 04:23:00;;;;;;;9.68;2.30;;;12.30;78.10;;;;;;4914419;29;20529;-57
2022/09/19 04:25:35;;;;;;;9.48;2.33;;;12.70;99.90;;;;;;4906388;29;20172;-57
2022/09/19 04:28:06;;;;;;;8.60;1.70;;;12.60;99.90;;;;;;4905481;29;20471;-57
2022/09/19 04:30:34;;;;;;;9.25;1.58;;;12.60;99.90;;;;;;4910650;29;20044;-58
2022/09/19 04:33:03;;;;;;;9.25;2.20;;;12.40;99.90;;;;;;4907541;29;20084;-57
2022/09/19 04:35:30;;;;;;;8.73;1.65;;;12.80;1.70;;;;;;4902749;29;20062;-57
2022/09/19 04:37:56;;;;;;;8.77;2.15;;;;;;;;;;4912261;29;20043;-57
2022/09/19 04:40:21;;;;;;;13.88;2.47;;;12.40;1.00;;;;;;4909242;29;20052;-57
2022/09/19 04:42:48;;;;;;;8.25;1.80;;;12.70;99.90;;;;;;4908234;29;20756;-59
2022/09/19 04:45:20;;;;;;;9.40;2.38;;;13.20;99.90;;;;;;4908443;29;20047;-58
2022/09/19 04:47:47;;;;;;;9.75;2.00;;;13.00;1.00;;;;;;4906472;29;20040;-58
2022/09/19 04:50:14;;;;;;;7.28;1.98;;;12.20;99.90;;;;;;4909428;29;20527;-58
2022/09/19 04:52:41;;;;;;;8.50;2.00;;;12.80;1.00;;;;;;4906721;29;20047;-58
2022/09/19 04:55:08;;;;;;;9.43;2.10;;;12.60;98.60;;;;;;4908887;29;20047;-58
2022/09/19 04:57:34;;;;;;;10.40;1.90;;;12.30;1.00;;;;;;4903514;29;20036;-57
2022/09/19 05:00:00;;;;;;;8.48;1.88;;;12.80;99.90;;;;;;4904346;29;20043;-58
2022/09/19 05:02:28;;;;;;;9.82;2.05;;;12.90;81.70;;;;;;4905916;29;20036;-59
2022/09/19 05:04:55;;;;;;;6.93;1.40;;;12.80;1.00;;;;;;4907150;29;20043;-57
2022/09/19 05:07:22;;;;;;;10.32;1.55;;;;;;;;;;4904095;29;20032;-59
2022/09/19 05:09:48;;;;;;;8.40;1.33;;;12.60;99.90;;;;;;4906605;29;20078;-57
2022/09/19 05:12:13;;;;;;;9.85;1.98;;;13.50;99.90;;;;;;4898405;29;20490;-59
2022/09/19 05:14:39;;;;;;;5.63;1.40;;;12.80;99.90;;;;;;4897245;29;20044;-58
2022/09/19 05:17:05;;;;;;;8.02;1.77;;;;;;;;;;4908887;29;20213;-57
2022/09/19 05:19:32;;;;;;;8.13;1.63;;;12.60;99.90;;;;;;4912726;29;20482;-57
2022/09/19 05:21:57;;;;;;;10.80;2.40;;;12.10;99.90;;;;;;4913419;29;20502;-57
2022/09/19 05:24:23;;;;;;;8.93;1.85;;;12.50;99.90;;;;;;4909536;29;20040;-59
2022/09/19 05:26:49;;;;;;;7.38;1.58;;;12.80;99.90;;;;;;4906649;29;20505;-58
2022/09/19 05:29:15;;;;;;;8.32;2.38;;;13.00;99.90;;;;;;4906260;29;20551;-60
2022/09/19 05:31:43;;;;;;;11.45;1.83;;;13.00;99.90;;;;;;4907095;29;20047;-59
2022/09/19 05:34:11;;;;;;;7.22;1.45;;;13.20;99.90;;;;;;4912089;29;20087;-59
2022/09/19 05:36:38;;;;;;;8.55;2.30;;;12.20;99.90;;;;;;4913917;29;20052;-59
2022/09/19 05:39:04;;;;;;;8.23;1.88;;;12.60;99.90;;;;;;4909396;29;20044;-58
2022/09/19 05:41:30;;;;;;;10.27;1.67;;;12.80;99.90;;;;;;4903785;29;20047;-58
2022/09/19 05:43:55;;;;;;;7.45;1.42;;;13.30;99.90;;;;;;4902563;29;20143;-58
2022/09/19 05:46:21;;;;;;;6.80;1.67;;;12.80;99.90;;;;;;4903596;29;20821;-59
2022/09/19 05:48:48;;;;;;;9.65;1.88;;;12.90;99.90;;;;;;4912596;29;20040;-57
2022/09/19 05:53:52;;;;;;;9.65;2.00;;;12.90;99.90;;;;;;4927298;29;20414;-59
2022/09/19 05:56:18;;;;;;;8.63;1.98;;;12.70;99.90;;;;;;4899612;29;20048;-58
2022/09/19 05:58:44;;;;;;;10.18;2.08;;;13.30;99.90;;;;;;4912390;29;20044;-58
2022/09/19 06:01:11;;;;;;;11.23;2.20;;;13.20;99.90;;;;;;4904911;29;20102;-59
2022/09/19 06:03:38;;;;;;;12.95;2.08;;;13.70;99.90;;;;;;4911701;29;20044;-59
2022/09/19 06:06:17;;;;;;;7.72;1.95;;;13.40;99.90;;;;;;4909477;29;20052;-57
2022/09/19 06:08:42;;;;;;;9.60;2.58;;;13.50;99.90;;;;;;4914462;29;20048;-58
2022/09/19 06:11:09;;;;;;;11.93;2.33;;;13.10;99.90;;;;;;4905958;29;20048;-57
2022/09/19 06:16:20;;;;;;;10.52;2.13;;;12.80;99.90;;;;;;4912798;29;20040;-58
2022/09/19 06:18:46;;;;;;;11.80;2.38;;;13.00;99.90;;;;;;4911096;29;20044;-55
2022/09/19 06:21:12;;;;;;;16.38;3.25;;;12.80;99.90;;;;;;4912929;29;20051;-55
2022/09/19 06:23:39;;;;;;;9.30;2.55;;;13.10;99.90;;;;;;4911732;29;20130;-58
2022/09/19 06:26:05;;;;;;;7.13;1.70;;;13.30;99.90;;;;;;4907416;29;20056;-57
2022/09/19 06:28:31;;;;;;;12.43;2.05;;;13.00;99.90;;;;;;4905273;29;20036;-59
2022/09/19 06:31:03;;;;;;;8.80;1.52;;;12.80;99.90;;;;;;4911773;29;20047;-59
2022/09/19 06:33:30;;;;;;;8.70;1.60;;;13.50;99.90;;;;;;4905521;29;20044;-59
2022/09/19 06:35:58;;;;;;;10.35;3.80;;;12.80;99.90;;;;;;4900019;29;20530;-59
2022/09/19 06:38:24;;;;;;;8.60;1.70;;;12.90;1.00;;;;;;4901373;29;20051;-59
2022/09/19 06:40:51;;;;;;;10.13;1.92;;;13.30;1.00;;;;;;4904264;29;20351;-58
2022/09/19 06:43:17;;;;;;;6.85;1.90;;;13.00;1.00;;;;;;4902073;29;20138;-57
2022/09/19 06:45:43;;;;;;;8.15;1.85;;;12.90;1.00;;;;;;4905576;29;20036;-58
2022/09/19 06:48:09;;;;;;;7.68;1.25;;;13.20;99.90;;;;;;4901081;29;20471;-59
2022/09/19 06:50:35;;;;;;;9.18;2.28;;;12.90;99.90;;;;;;4907854;29;20412;-57
2022/09/19 06:53:01;;;;;;;8.70;1.83;;;13.40;99.90;;;;;;4909855;29;20044;-56
2022/09/19 06:55:28;;;;;;;9.43;1.95;;;13.40;99.90;;;;;;4916420;29;20051;-56
2022/09/19 06:57:59;;;;;;;9.98;1.88;;;13.20;99.90;;;;;;4910941;29;20410;-57
2022/09/19 07:00:26;;;;;;;13.63;3.03;;;13.30;99.90;;;;;;4905938;29;20103;-56
2022/09/19 07:03:00;;;;;;;9.32;1.83;;;13.00;1.00;;;;;;4913738;29;20100;-59
2022/09/19 07:05:27;;;;;;;11.27;1.77;;;13.30;1.00;;;;;;4912660;29;20079;-58
2022/09/19 07:07:53;;;;;;;12.65;2.60;;;12.90;1.00;;;;;;4916128;29;20040;-57
2022/09/19 07:10:22;;;;;;;9.27;2.63;;;13.60;1.00;;;;;;4919468;29;20097;-58
2022/09/19 07:12:56;;;;;;;14.32;1.75;;;12.90;1.00;;;;;;4922220;29;20044;-59
2022/09/19 07:15:23;;;;;;;10.18;1.65;;;13.00;68.80;;;;;;4920118;29;20086;-59
2022/09/19 07:17:49;;;;;;;9.57;2.08;;;13.40;1.00;;;;;;4910776;29;20119;-58
2022/09/19 07:20:15;;;;;;;9.57;1.88;;;13.00;1.00;;;;;;4913637;29;20531;-59
2022/09/19 07:22:40;;;;;;;11.40;2.20;;;13.50;1.00;;;;;;4918414;29;20040;-58
2022/09/19 07:25:07;;;;;;;14.07;2.15;;;13.00;1.00;;;;;;4914929;29;20414;-58
2022/09/19 07:27:37;;;;;;;9.90;2.58;;;13.80;1.00;;;;;;4918143;29;20055;-56
2022/09/19 07:30:06;;;;;;;10.55;2.33;;;13.40;1.00;;;;;;4921407;29;20047;-57
2022/09/19 07:32:32;;;;;;;9.45;2.05;;;13.50;4.60;;;;;;4916754;29;20506;-57
2022/09/19 07:34:57;;;;;;;9.10;2.10;;;13.50;99.90;;;;;;4914287;29;20359;-59
2022/09/19 07:37:23;;;;;;;5.45;1.60;;;14.10;99.90;;;;;;4912848;29;20059;-58
2022/09/19 07:39:49;;;;;;;7.72;1.70;;;13.00;39.30;;;;;;4906774;29;20043;-57
2022/09/19 07:42:14;;;;;;;11.60;3.10;;;13.50;86.80;;;;;;4905691;29;20123;-57
2022/09/19 07:44:40;;;;;;;14.10;2.92;;;13.90;99.90;;;;;;4905861;29;20668;-57
2022/09/19 07:49:50;;;;;;;11.52;2.42;;;14.00;67.30;;;;;;4909884;29;20351;-59
2022/09/19 07:52:15;;;;;;;11.10;2.40;;;14.10;99.90;;;;;;4919771;29;20043;-58
2022/09/19 07:54:41;;;;;;;14.00;3.88;;;14.50;99.90;;;;;;4914655;29;20032;-58
2022/09/19 07:57:07;;;;;;;11.18;2.35;;;14.10;99.90;;;;;;4912939;29;20046;-57
2022/09/19 07:59:33;;;;;;;16.77;2.63;;;14.30;1.00;;;;;;4912202;29;20467;-58
2022/09/19 08:01:58;;;;;;;9.48;2.28;;;14.90;99.90;;;;;;4905567;29;20091;-59
2022/09/19 08:04:24;;;;;;;9.98;2.03;;;14.50;66.80;;;;;;4902698;29;20092;-58
2022/09/19 08:06:49;;;;;;;11.43;2.20;;;14.40;99.90;;;;;;4914775;29;20043;-58
2022/09/19 08:09:15;;;;;;;13.10;2.22;;;14.30;99.90;;;;;;4906605;29;20089;-58
2022/09/19 08:11:41;;;;;;;14.35;2.47;;;13.50;68.60;;;;;;4913264;29;20070;-59
2022/09/19 08:14:07;;;;;;;10.70;2.08;;;14.50;99.90;;;;;;4916224;29;20043;-59
2022/09/19 08:16:32;;;;;;;18.45;3.55;;;14.30;99.90;;;;;;4913829;29;20127;-59
2022/09/19 08:18:58;;;;;;;10.88;2.35;;;14.50;65.20;;;;;;4915378;29;20115;-58
2022/09/19 08:21:24;;;;;;;9.85;2.15;;;14.90;20.90;;;;;;4915531;29;20043;-58
2022/09/19 08:23:50;;;;;;;9.65;2.38;;;14.90;42.40;;;;;;4915718;29;20122;-59
2022/09/19 08:26:16;;;;;;;13.68;2.67;;;14.80;39.80;;;;;;4912661;29;20119;-59
2022/09/19 08:28:42;;;;;;;9.50;2.00;;;14.60;47.50;;;;;;4915022;29;20071;-58
2022/09/19 08:31:09;;;;;;;12.15;2.65;;;;;;;;;;4914418;29;20462;-58
2022/09/19 08:33:35;;;;;;;15.00;2.63;;;14.60;9.80;;;;;;4914280;29;20130;-58
2022/09/19 08:36:01;;;;;;;10.75;2.47;;;14.70;1.00;;;;;;4915456;29;20111;-59
2022/09/19 08:38:27;;;;;;;12.80;2.58;;;14.90;1.00;;;;;;4905701;29;20100;-58
2022/09/19 08:41:06;;;;;;;10.70;2.70;;;14.30;1.00;;;;;;4912456;29;20032;-59
2022/09/19 08:43:49;;;;;;;14.10;2.83;;;15.40;5.30;;;;;;4910288;29;20044;-58
2022/09/19 08:46:39;;;;;;;15.65;3.20;;;14.70;1.00;;;;;;4898312;29;20048;-58
2022/09/19 08:49:27;;;;;;;14.23;2.80;;;15.10;1.00;;;;;;4901343;29;20048;-58
2022/09/19 08:52:02;;;;;;;11.35;2.75;;;15.90;1.00;;;;;;4908935;29;20040;-57
2022/09/19 08:54:33;;;;;;;;;;;15.20;1.00;;;;;;4913296;29;20036;-59
2022/09/19 08:57:00;;;;;;;11.82;2.53;;;15.70;1.00;;;;;;4912473;29;19923;-57
2022/09/19 08:59:33;;;;;;;14.63;2.47;;;15.20;1.00;;;;;;4911347;29;20072;-58
2022/09/19 09:02:18;;;;;;;11.20;2.58;;;15.30;25.10;;;;;;4909769;29;20040;-58
2022/09/19 09:04:44;;;;;;;15.57;2.58;;;15.10;31.50;;;;;;4914046;29;20040;-58
2022/09/19 09:07:49;;;;;;;9.45;2.03;;;16.10;28.60;;;;;;4909576;29;20633;-58
2022/09/19 09:10:36;;;;;;;8.33;2.10;;;15.60;72.20;;;;;;4907071;29;20067;-56
2022/09/19 09:13:21;;;;;;;10.68;2.92;;;14.90;1.00;;;;;;4910092;29;20341;-59
2022/09/19 09:16:11;;;;;;;10.60;2.10;;;14.90;1.00;;;;;;4904599;29;20036;-58
2022/09/19 09:19:20;;;;;;;11.00;2.55;;;16.10;99.90;;;;;;4907780;29;20087;-58
2022/09/19 09:21:58;;;;;;;11.85;2.33;;;15.70;99.90;;;;;;4897949;29;20068;-58
2022/09/19 09:24:32;;;;;;;11.68;3.40;;;15.70;99.90;;;;;;4914720;29;20036;-59
2022/09/19 09:27:01;;;;;;;9.82;2.30;;;15.60;99.90;;;;;;4914479;29;20040;-58
2022/09/19 09:29:51;;;;;;;14.18;2.97;;;16.30;99.90;;;;;;4914558;29;20407;-58
2022/09/19 09:32:33;;;;;;;12.75;2.47;;;16.50;99.90;;;;;;4897230;29;20048;-58
2022/09/19 09:35:12;;;;;;;10.65;2.08;;;15.70;99.90;;;;;;4914509;29;20447;-56
2022/09/19 09:37:39;;;;;;;8.52;2.15;;;;;;;;;;4912078;29;20055;-58
2022/09/19 09:40:12;;;;;;;7.75;2.13;;;16.40;99.90;;;;;;4914516;29;20044;-55
2022/09/19 09:42:43;;;;;;;11.88;2.28;;;16.20;99.90;;;;;;4912052;29;20059;-58
2022/09/19 09:45:20;;;;;;;11.88;2.85;;;15.50;99.90;;;;;;4914442;29;20108;-58
2022/09/19 09:47:59;;;;;;;12.68;2.60;;;16.10;99.90;;;;;;4912935;29;20041;-58
2022/09/19 09:50:48;;;;;;;13.43;3.50;;;16.70;99.90;;;;;;4913395;29;20044;-58
2022/09/19 09:53:41;;;;;;;9.35;1.85;;;15.90;99.90;;;;;;4913618;29;20044;-57
2022/09/19 09:56:36;;;;;;;10.95;2.33;;;16.30;99.90;;;;;;4913320;29;20032;-58
2022/09/19 09:59:02;;;;;;;9.98;2.58;;;16.00;1.00;;;;;;4905804;29;21099;-58
2022/09/19 10:04:51;;;;;;;9.98;2.63;;;16.40;99.90;;;;;;4909254;29;20115;-59
2022/09/19 10:07:20;;;;;;;11.63;2.60;;;16.90;99.90;;;;;;4904177;29;20053;-56
2022/09/19 10:09:53;;;;;;;11.30;2.88;;;16.70;99.90;;;;;;4906389;29;20127;-55
2022/09/19 10:12:27;;;;;;;13.93;2.88;;;16.70;99.90;;;;;;4913783;29;20036;-57
2022/09/19 10:15:00;;;;;;;8.88;2.10;;;16.10;1.00;;;;;;4909338;29;20047;-58
2022/09/19 10:17:32;;;;;;;16.30;2.88;;;17.10;99.90;;;;;;4913591;29;20048;-57
2022/09/19 10:20:03;;;;;;;12.00;2.90;;;16.50;99.90;;;;;;4908706;29;20104;-57
2022/09/19 10:22:29;;;;;;;12.07;2.33;;;17.20;99.90;;;;;;4908879;29;20463;-58
2022/09/19 10:25:00;;;;;;;11.75;3.08;;;18.40;99.90;;;;;;4912642;29;20051;-58
2022/09/19 10:27:38;;;;;;;14.27;2.70;;;17.20;99.90;;;;;;4916253;29;20044;-57
2022/09/19 10:30:18;;;;;;;14.57;2.30;;;17.00;99.90;;;;;;4912325;29;20048;-55
2022/09/19 10:32:46;;;;;;;9.70;2.45;;;16.80;21.00;;;;;;4913691;29;20044;-57
2022/09/19 10:35:30;;;;;;;11.45;2.30;;;17.10;63.90;;;;;;4916501;29;20462;-55
2022/09/19 10:38:13;;;;;;;14.23;3.13;;;17.00;99.90;;;;;;4916811;29;20044;-55
2022/09/19 10:40:57;;;;;;;11.18;2.10;;;16.90;99.90;;;;;;4910350;29;20669;-55
2022/09/19 10:43:26;;;;;;;17.02;2.72;;;16.60;99.90;;;;;;4902146;29;20479;-56
2022/09/19 10:45:51;;;;;;;9.57;2.70;;;15.90;1.00;;;;;;4931592;29;20082;-56
2022/09/19 10:48:39;;;;;;;11.30;2.40;;;15.60;1.00;;;;;;4910656;29;20064;-56
2022/09/19 10:51:13;;;;;;;10.15;2.00;;;14.90;99.90;;;;;;4913279;29;20036;-57
2022/09/19 10:53:43;;;;;;;14.43;3.03;;;13.90;1.00;;;;;;4913469;29;20427;-56
2022/09/19 10:56:30;;;;;;;14.52;2.72;;;14.00;59.10;;;;;;4915616;29;20040;-60
2022/09/19 10:59:33;;;;;;;10.73;2.88;;;12.80;1.00;;;;;;4916408;29;20028;-58
2022/09/19 11:02:23;;;;;;;10.85;2.13;;;13.00;99.90;;;;;;4911172;29;20041;-59
2022/09/19 11:05:02;;;;;;;10.00;2.28;;;12.70;99.90;;;;;;4908193;29;20184;-58
2022/09/19 11:07:41;;;;;;;13.00;2.45;;;12.60;99.90;;;;;;4913534;29;20110;-57
2022/09/19 11:10:37;;;;;;;12.18;2.47;;;12.50;99.90;;;;;;4915492;29;20508;-59
2022/09/19 11:13:07;;;;;;;15.45;3.75;;;12.50;99.90;;;;;;4912264;29;20083;-58
2022/09/19 11:15:51;;;;;;;15.80;3.40;;;13.10;99.90;;;;;;4910208;29;20535;-59
2022/09/19 11:18:40;;;;;;;8.63;2.33;;;13.60;99.90;;;;;;4907911;29;20143;-59
2022/09/19 11:21:25;;;;;;;12.38;2.03;;;13.50;99.90;;;;;;4909441;29;20055;-59
2022/09/19 11:24:00;;;;;;;10.63;2.40;;;14.00;99.90;;;;;;4919634;29;20044;-59
2022/09/19 11:26:57;;;;;;;10.32;2.28;;;14.10;99.90;;;;;;4922332;29;20051;-58
2022/09/19 11:29:35;;;;;;;13.00;2.22;;;14.00;26.30;;;;;;4919909;29;20044;-59
2022/09/19 11:32:25;;;;;;;13.70;2.78;;;14.20;69.60;;;;;;4926172;29;20106;-58
2022/09/19 11:35:07;;;;;;;9.55;1.73;;;14.60;68.80;;;;;;4917635;29;20376;-59
2022/09/19 11:37:38;;;;;;;11.25;2.30;;;14.50;1.00;;;;;;4919873;29;20083;-58
2022/09/19 11:40:29;;;;;;;15.05;3.25;;;14.50;99.90;;;;;;4916824;29;20055;-58
2022/09/19 11:43:18;;;;;;;14.25;2.40;;;15.40;99.90;;;;;;4922653;29;20119;-59
2022/09/19 11:46:21;;;;;;;15.50;2.65;;;15.80;46.30;;;;;;4919403;29;20134;-58
2022/09/19 11:48:58;;;;;;;13.65;2.75;;;;;;;;;;4923214;29;20056;-56
2022/09/19 11:51:49;;;;;;;11.65;2.63;;;15.10;18.20;;;;;;4916946;29;20040;-56
2022/09/19 11:54:47;;;;;;;17.33;2.88;;;14.60;99.90;;;;;;4912024;29;20091;-53
2022/09/19 11:57:39;;;;;;;13.77;2.60;;;14.00;99.90;;;;;;4915840;29;20108;-56
2022/09/19 12:00:26;;;;;;;13.80;2.38;;;14.10;1.00;;;;;;4915912;29;20096;-54
2022/09/19 12:03:10;;;;;;;10.07;2.03;;;13.90;1.00;;;;;;4915812;29;20037;-55
2022/09/19 12:05:39;;;;;;;8.57;2.08;;;13.30;1.00;;;;;;4914999;29;20160;-57
2022/09/19 12:08:26;;;;;;;11.50;2.63;;;13.50;1.00;;;;;;4906357;29;20032;-56
2022/09/19 12:11:05;;;;;;;9.18;2.08;;;;;;;;;;4920110;29;20186;-55
2022/09/19 12:13:31;;;;;;;12.50;2.30;;;;;;;;;;4918647;29;20036;-56
2022/09/19 12:16:07;;;;;;;16.10;2.95;;;15.40;1.00;;;;;;4916327;29;20043;-57
2022/09/19 12:18:55;;;;;;;9.25;2.38;;;16.80;99.90;;;;;;4917021;29;20482;-56
2022/09/19 12:21:22;;;;;;;8.60;2.20;;;16.70;51.20;;;;;;4925136;29;20044;-57
2022/09/19 12:26:53;;;;;;;5.40;1.50;;;19.30;99.90;;;;;;4923714;29;20506;-58
2022/09/19 12:29:48;;;;;;;8.30;2.35;;;19.80;99.90;;;;;;4919727;29;20046;-57
2022/09/19 12:32:33;;;;;;;;;;;19.20;63.00;;;;;;4911133;29;20044;-58
2022/09/19 12:35:16;;;;;;;10.65;2.30;;;18.50;99.90;;;;;;4920161;29;20018;-58
2022/09/19 12:37:47;;;;;;;13.13;2.95;;;18.30;99.90;;;;;;4924327;29;20082;-55
2022/09/19 12:40:39;;;;;;;12.52;2.50;;;18.40;99.90;;;;;;4920465;29;20071;-59
2022/09/19 12:43:27;;;;;;;10.73;2.67;;;18.10;99.90;;;;;;4921876;29;20490;-57
2022/09/19 12:46:09;;;;;;;15.43;3.08;;;17.50;99.90;;;;;;4904451;29;20076;-57
2022/09/19 12:48:49;;;;;;;14.00;2.63;;;19.70;99.90;;;;;;4911658;29;20048;-58
2022/09/19 12:51:33;;;;;;;13.63;2.70;;;20.10;65.10;;;;;;4911385;29;20044;-57
2022/09/19 12:54:19;;;;;;;10.73;2.40;;;21.30;1.00;;;;;;4908335;29;20055;-57
2022/09/19 12:57:11;;;;;;;13.23;2.80;;;23.30;99.90;;;;;;4908615;29;20221;-58
2022/09/19 12:59:37;;;;;;;12.02;2.70;;;23.80;99.90;;;;;;4908611;29;20383;-57
2022/09/19 13:02:28;;;;;;;11.82;2.33;;;23.60;99.90;;;;;;4919423;29;20067;-58
2022/09/19 13:05:10;;;;;;;12.80;2.63;;;23.70;99.90;;;;;;4915333;29;20040;-54
2022/09/19 13:07:58;;;;;;;8.50;2.40;;;24.30;99.90;;;;;;4915453;29;20040;-54
2022/09/19 13:10:49;;;;;;;9.85;2.25;;;26.40;82.50;;;;;;5082032;27;20653;-57
2022/09/19 13:13:28;;;;;;;8.57;1.90;;;27.10;46.40;;;;;;5072818;28;20174;-58
2022/09/19 13:16:01;;;;;;;7.43;1.98;;;27.50;26.50;;;;;;5067880;28;20045;-57
2022/09/19 13:24:08;;;;;;;7.93;2.28;;;30.40;1.00;;;;;;5067479;28;20120;-57
2022/09/19 13:26:35;;;;;;;7.60;1.90;;;30.10;1.00;;;;;;5066894;28;20060;-56
2022/09/19 13:29:26;;;;;;;8.00;1.70;;;30.60;1.00;;;;;;5064499;28;20051;-58
2022/09/19 13:31:53;;;;;;;9.18;1.85;;;30.80;1.00;;;;;;5050867;28;20119;-59
2022/09/19 13:34:39;;;;;;;5.88;1.90;;;30.60;1.00;;;;;;5067099;28;20036;-59
2022/09/19 13:37:28;;;;;;;6.65;1.90;;;30.10;1.00;;;;;;5060068;28;20039;-60
2022/09/19 13:40:05;;;;;;;8.40;1.90;;;30.00;1.00;;;;;;5070379;28;20037;-58
2022/09/19 13:42:40;;;;;;;8.07;1.92;;;29.70;1.00;;;;;;5052697;28;20153;-57
2022/09/19 13:45:34;;;;;;;6.75;1.67;;;28.80;1.00;;;;;;5068045;28;20471;-57
2022/09/19 13:53:40;;;;;;;9.50;1.98;;;29.20;1.00;;;;;;4986998;28;20108;-57
2022/09/19 14:12:22;;;;;;;8.57;1.90;;;31.10;1.00;;;;;;5023027;28;20061;-56
2022/09/19 14:17:19;;;;;;;6.55;1.55;;;29.00;1.00;;;;;;5010643;28;20042;-56
2022/09/19 14:19:50;;;;;;;6.70;1.90;;;28.10;1.00;;;;;;5006697;28;20038;-58